Time;durP1;ratioP1;P1;durP2;ratioP2;P2;SDS_P1;SDS_P2;PMS_P1;PMS_P2;Temp;Humidity;BMP_temperature;BMP_pressure;BME280_temperature;BME280_humidity;BME280_pressure;Samples;Min_cycle;Max_cycle;Signal;HPM_P1;HPM_P2
2021/08/20 00:02:16;;;;;;;23.95;5.45;;;37.70;32.30;;;;;;5079726;28;20073;-64
2021/08/20 00:04:42;;;;;;;20.95;5.78;;;37.60;32.20;;;;;;5073702;28;20072;-63
2021/08/20 00:07:09;;;;;;;17.95;5.53;;;37.40;32.40;;;;;;5074244;28;20481;-63
2021/08/20 00:09:35;;;;;;;17.73;6.18;;;37.30;33.10;;;;;;5075219;28;20069;-64
2021/08/20 00:12:02;;;;;;;20.83;5.90;;;37.20;33.10;;;;;;5088471;28;20073;-63
2021/08/20 00:14:29;;;;;;;18.50;5.82;;;37.30;32.90;;;;;;5079186;28;20529;-65
2021/08/20 00:16:55;;;;;;;19.33;5.65;;;37.20;33.30;;;;;;5096137;28;20069;-63
2021/08/20 00:19:22;;;;;;;17.90;5.57;;;37.00;58.80;;;;;;5075792;28;20160;-64
2021/08/20 00:21:49;;;;;;;18.05;5.13;;;37.20;34.10;;;;;;5079951;28;20466;-63
2021/08/20 00:24:16;;;;;;;17.75;5.93;;;37.20;33.10;;;;;;5077158;28;20122;-65
2021/08/20 00:26:43;;;;;;;16.08;5.78;;;36.50;56.90;;;;;;5080903;28;20077;-65
2021/08/20 00:29:10;;;;;;;22.30;6.28;;;36.80;36.60;;;;;;5071954;28;20107;-65
2021/08/20 00:31:36;;;;;;;25.73;6.00;;;37.00;33.60;;;;;;5076345;28;20156;-64
2021/08/20 00:34:03;;;;;;;28.95;6.03;;;37.30;54.10;;;;;;5074600;28;20099;-65
2021/08/20 00:36:30;;;;;;;14.50;5.55;;;36.70;33.80;;;;;;5093309;28;20040;-64
2021/08/20 00:38:56;;;;;;;18.35;6.18;;;36.80;34.40;;;;;;5075838;28;20447;-63
2021/08/20 00:41:23;;;;;;;19.70;6.00;;;36.80;35.00;;;;;;5072730;28;20076;-64
2021/08/20 00:43:49;;;;;;;17.80;5.55;;;36.80;33.40;;;;;;5077753;28;20076;-65
2021/08/20 00:46:16;;;;;;;16.67;5.90;;;36.70;34.10;;;;;;5075462;28;20069;-65
2021/08/20 00:48:43;;;;;;;17.48;5.85;;;36.70;34.30;;;;;;5078898;28;20069;-64
2021/08/20 00:51:20;;;;;;;16.83;5.68;;;36.70;34.30;;;;;;5073787;28;20073;-64
2021/08/20 00:53:47;;;;;;;23.65;6.15;;;36.80;34.60;;;;;;5076066;28;20054;-64
2021/08/20 00:56:14;;;;;;;17.52;5.72;;;36.70;34.60;;;;;;5090979;28;20082;-64
2021/08/20 00:58:41;;;;;;;14.48;6.43;;;36.60;34.70;;;;;;5093345;28;20073;-64
2021/08/20 01:01:08;;;;;;;16.88;6.03;;;36.50;35.00;;;;;;5072326;28;20132;-64
2021/08/20 01:03:36;;;;;;;17.63;6.18;;;36.20;66.10;;;;;;5078278;28;20483;-63
2021/08/20 01:06:06;;;;;;;16.80;5.65;;;36.30;41.90;;;;;;5075959;28;20479;-63
2021/08/20 01:08:35;;;;;;;28.80;14.73;;;36.30;35.00;;;;;;5074354;28;20065;-64
2021/08/20 01:11:03;;;;;;;21.35;6.10;;;36.20;35.70;;;;;;5075152;28;20469;-64
2021/08/20 01:13:41;;;;;;;22.77;6.38;;;36.30;35.20;;;;;;5071736;28;20070;-64
2021/08/20 01:16:09;;;;;;;18.13;5.85;;;36.20;35.10;;;;;;5077018;28;20551;-64
2021/08/20 01:18:38;;;;;;;18.58;6.05;;;36.20;35.10;;;;;;5077090;28;20161;-62
2021/08/20 01:21:16;;;;;;;21.63;6.50;;;36.00;42.70;;;;;;5074527;28;20084;-63
2021/08/20 01:23:45;;;;;;;21.90;6.90;;;36.10;35.80;;;;;;5077022;28;20199;-63
2021/08/20 01:26:12;;;;;;;27.25;6.40;;;36.10;36.60;;;;;;5072756;28;20085;-63
2021/08/20 01:28:39;;;;;;;25.33;8.35;;;36.10;35.90;;;;;;5079982;28;20080;-64
2021/08/20 01:31:08;;;;;;;17.40;6.38;;;35.90;35.80;;;;;;5077950;28;20494;-64
2021/08/20 01:33:36;;;;;;;19.23;6.30;;;35.80;36.20;;;;;;5078541;28;20139;-64
2021/08/20 01:36:02;;;;;;;21.27;5.75;;;35.70;35.90;;;;;;5074797;28;20093;-65
2021/08/20 01:38:31;;;;;;;16.83;6.00;;;35.70;36.30;;;;;;5076198;28;20148;-64
2021/08/20 01:40:57;;;;;;;19.50;5.93;;;35.70;36.50;;;;;;5077921;28;20096;-64
2021/08/20 01:43:24;;;;;;;16.48;6.00;;;35.60;36.60;;;;;;5086833;28;20074;-65
2021/08/20 01:45:51;;;;;;;20.85;6.20;;;35.50;36.50;;;;;;5071245;28;20072;-65
2021/08/20 01:48:18;;;;;;;21.08;5.13;;;35.50;36.40;;;;;;5076485;28;20126;-65
2021/08/20 01:50:45;;;;;;;28.88;7.32;;;35.50;36.90;;;;;;5074812;28;20077;-65
2021/08/20 01:53:13;;;;;;;19.48;5.78;;;35.40;36.70;;;;;;5072708;28;20135;-66
2021/08/20 01:55:44;;;;;;;20.50;5.68;;;35.30;35.90;;;;;;5076085;28;20076;-65
2021/08/20 01:58:11;;;;;;;18.13;6.43;;;35.30;36.70;;;;;;5073849;28;20080;-65
2021/08/20 02:00:39;;;;;;;20.83;6.20;;;35.30;37.50;;;;;;5075461;28;20100;-66
2021/08/20 02:03:05;;;;;;;13.43;6.32;;;35.30;37.40;;;;;;5073519;28;20069;-65
2021/08/20 02:05:33;;;;;;;12.68;5.60;;;35.00;61.40;;;;;;5076099;28;20107;-66
2021/08/20 02:08:00;;;;;;;14.25;6.43;;;35.00;37.30;;;;;;5081940;28;20528;-65
2021/08/20 02:10:27;;;;;;;17.10;5.80;;;34.90;61.20;;;;;;5079841;28;20045;-67
2021/08/20 02:12:54;;;;;;;19.08;6.18;;;35.00;64.60;;;;;;5078771;28;20099;-66
2021/08/20 02:15:20;;;;;;;16.98;6.28;;;34.90;65.20;;;;;;5077223;28;20025;-67
2021/08/20 02:17:47;;;;;;;20.13;6.00;;;35.30;70.90;;;;;;5080884;28;20111;-66
2021/08/20 02:20:13;;;;;;;24.42;6.32;;;34.50;42.90;;;;;;5074628;28;20512;-66
2021/08/20 02:22:40;;;;;;;18.17;6.22;;;34.70;37.70;;;;;;5079905;28;20105;-67
2021/08/20 02:25:07;;;;;;;16.75;5.90;;;34.50;53.50;;;;;;5074733;28;20066;-67
2021/08/20 02:27:33;;;;;;;25.33;6.97;;;34.70;70.20;;;;;;5080000;28;20455;-65
2021/08/20 02:30:00;;;;;;;14.25;5.45;;;34.80;68.80;;;;;;5099297;28;20115;-65
2021/08/20 02:32:26;;;;;;;13.77;5.03;;;34.30;66.70;;;;;;5077602;28;20404;-66
2021/08/20 02:34:53;;;;;;;22.15;5.60;;;34.20;68.70;;;;;;5075588;28;20021;-67
2021/08/20 02:37:20;;;;;;;21.63;4.95;;;34.30;63.50;;;;;;5077681;28;20021;-66
2021/08/20 02:39:46;;;;;;;18.27;5.13;;;34.00;59.80;;;;;;5078453;28;20120;-67
2021/08/20 02:42:13;;;;;;;19.70;5.25;;;34.70;61.00;;;;;;5077614;28;20033;-66
2021/08/20 02:44:39;;;;;;;13.63;5.80;;;34.20;37.70;;;;;;5078389;28;20070;-66
2021/08/20 02:47:06;;;;;;;17.77;5.07;;;34.10;56.60;;;;;;5074531;28;20079;-66
2021/08/20 02:49:32;;;;;;;18.15;5.72;;;34.20;59.60;;;;;;5077185;28;20058;-65
2021/08/20 02:51:59;;;;;;;19.13;5.70;;;34.20;61.90;;;;;;5078935;28;20073;-66
2021/08/20 02:54:26;;;;;;;18.35;6.18;;;34.10;61.60;;;;;;5074206;28;20151;-67
2021/08/20 02:56:52;;;;;;;16.58;5.75;;;34.00;38.00;;;;;;5076395;28;20049;-67
2021/08/20 02:59:19;;;;;;;19.17;6.07;;;33.90;38.20;;;;;;5074784;28;20178;-66
2021/08/20 03:01:49;;;;;;;18.40;6.18;;;33.70;62.50;;;;;;5076089;28;20443;-67
2021/08/20 03:04:16;;;;;;;23.52;6.40;;;33.90;59.30;;;;;;5073920;28;20021;-67
2021/08/20 03:06:43;;;;;;;20.65;5.50;;;33.90;38.10;;;;;;5074124;28;20054;-67
2021/08/20 03:09:11;;;;;;;14.88;5.80;;;33.90;62.90;;;;;;5076452;28;20488;-67
2021/08/20 03:11:39;;;;;;;18.27;6.00;;;33.70;59.80;;;;;;5075520;28;20078;-66
2021/08/20 03:14:05;;;;;;;14.75;6.05;;;33.80;59.50;;;;;;5078097;28;20094;-66
2021/08/20 03:16:32;;;;;;;21.95;7.03;;;33.80;38.00;;;;;;5078920;28;20071;-66
2021/08/20 03:18:59;;;;;;;22.10;6.32;;;34.40;63.90;;;;;;5091874;28;20097;-66
2021/08/20 03:21:26;;;;;;;19.27;6.22;;;33.80;37.90;;;;;;5078078;28;20073;-66
2021/08/20 03:23:53;;;;;;;19.67;6.72;;;33.80;55.50;;;;;;5075636;28;20089;-65
2021/08/20 03:26:19;;;;;;;20.85;6.30;;;33.70;38.70;;;;;;5079087;28;20102;-62
2021/08/20 03:28:46;;;;;;;14.15;6.15;;;33.70;38.20;;;;;;5073738;28;20150;-61
2021/08/20 03:31:12;;;;;;;24.20;5.97;;;33.40;62.90;;;;;;5078030;28;20076;-62
2021/08/20 03:33:39;;;;;;;17.60;5.38;;;33.50;58.10;;;;;;5080888;28;20079;-62
2021/08/20 03:36:05;;;;;;;16.60;5.18;;;33.60;38.20;;;;;;5082053;28;20065;-62
2021/08/20 03:38:32;;;;;;;11.60;5.20;;;33.60;38.30;;;;;;5081269;28;20074;-61
2021/08/20 03:40:58;;;;;;;28.92;5.60;;;33.60;38.40;;;;;;5073150;28;20201;-63
2021/08/20 03:43:25;;;;;;;23.35;5.40;;;33.40;67.60;;;;;;5080812;28;20133;-64
2021/08/20 03:45:51;;;;;;;25.25;6.13;;;33.50;38.70;;;;;;5075308;28;20471;-62
2021/08/20 03:48:18;;;;;;;25.67;6.93;;;33.50;38.40;;;;;;5075477;28;20099;-63
2021/08/20 03:50:45;;;;;;;17.63;5.70;;;33.50;38.50;;;;;;5080328;28;20070;-65
2021/08/20 03:53:11;;;;;;;15.00;5.60;;;33.50;38.60;;;;;;5073755;28;20480;-62
2021/08/20 03:55:38;;;;;;;18.50;5.88;;;33.40;38.50;;;;;;5075845;28;20077;-61
2021/08/20 03:58:04;;;;;;;17.75;5.20;;;33.50;38.70;;;;;;5077344;28;20126;-61
2021/08/20 04:00:32;;;;;;;14.23;5.53;;;33.40;39.00;;;;;;5075542;28;20108;-62
2021/08/20 04:02:58;;;;;;;32.05;7.50;;;33.40;39.20;;;;;;5078702;28;20100;-62
2021/08/20 04:05:25;;;;;;;23.52;5.90;;;33.30;38.70;;;;;;5074904;28;20083;-62
2021/08/20 04:07:52;;;;;;;17.02;5.50;;;33.30;38.50;;;;;;5075389;28;20073;-62
2021/08/20 04:10:19;;;;;;;27.08;6.30;;;33.40;43.60;;;;;;5077662;28;20076;-62
2021/08/20 04:12:45;;;;;;;19.15;6.20;;;33.40;42.70;;;;;;5071918;28;20077;-61
2021/08/20 04:15:12;;;;;;;21.63;5.85;;;33.30;41.40;;;;;;5077923;28;20077;-61
2021/08/20 04:17:38;;;;;;;23.35;5.88;;;33.20;42.20;;;;;;5078968;28;20074;-62
2021/08/20 04:20:06;;;;;;;39.33;6.53;;;33.30;46.90;;;;;;5073224;28;20202;-62
2021/08/20 04:22:32;;;;;;;30.23;5.85;;;33.20;49.80;;;;;;5076700;28;20076;-63
2021/08/20 04:24:59;;;;;;;35.85;6.75;;;33.00;51.60;;;;;;5074749;28;20069;-62
2021/08/20 04:27:26;;;;;;;40.17;6.85;;;33.00;52.50;;;;;;5073078;28;20080;-62
2021/08/20 04:29:53;;;;;;;28.35;6.85;;;33.30;77.50;;;;;;5070908;28;20534;-62
2021/08/20 04:32:19;;;;;;;17.52;5.72;;;32.80;54.30;;;;;;5075572;28;20069;-62
2021/08/20 04:34:46;;;;;;;18.80;5.43;;;32.80;54.90;;;;;;5076570;28;20073;-59
2021/08/20 04:37:12;;;;;;;26.73;6.57;;;32.70;55.50;;;;;;5077754;28;20092;-61
2021/08/20 04:39:39;;;;;;;26.02;7.10;;;32.50;56.00;;;;;;5080411;28;20092;-61
2021/08/20 04:42:06;;;;;;;25.75;6.78;;;32.50;56.50;;;;;;5072135;28;20073;-60
2021/08/20 04:44:32;;;;;;;25.67;6.70;;;32.40;56.90;;;;;;5080855;28;20081;-62
2021/08/20 04:46:59;;;;;;;18.83;5.38;;;32.30;57.10;;;;;;5082557;28;20093;-62
2021/08/20 04:49:25;;;;;;;33.92;6.38;;;32.30;57.40;;;;;;5072309;28;20094;-61
2021/08/20 04:51:55;;;;;;;17.13;5.43;;;32.30;57.50;;;;;;5076702;28;20163;-63
2021/08/20 04:54:21;;;;;;;22.05;6.90;;;32.20;55.40;;;;;;5073552;28;20135;-61
2021/08/20 04:56:49;;;;;;;21.63;7.00;;;32.20;57.10;;;;;;5073495;28;20097;-62
2021/08/20 04:59:16;;;;;;;23.65;7.20;;;32.10;58.10;;;;;;5077657;28;20089;-62
2021/08/20 05:01:43;;;;;;;19.70;6.70;;;32.10;58.30;;;;;;5076765;28;20071;-61
2021/08/20 05:04:09;;;;;;;16.85;6.40;;;32.10;58.70;;;;;;5077498;28;20081;-61
2021/08/20 05:06:38;;;;;;;18.50;7.30;;;32.10;58.70;;;;;;5071789;28;20479;-61
2021/08/20 05:09:07;;;;;;;24.95;8.23;;;32.00;59.20;;;;;;5076613;28;20102;-62
2021/08/20 05:11:35;;;;;;;23.23;6.93;;;32.00;58.50;;;;;;5081984;28;20072;-64
2021/08/20 05:14:02;;;;;;;20.50;5.95;;;32.00;54.00;;;;;;5076974;28;20080;-61
2021/08/20 05:16:28;;;;;;;17.40;5.28;;;32.00;52.60;;;;;;5071764;28;20095;-61
2021/08/20 05:18:58;;;;;;;11.07;5.53;;;32.00;51.20;;;;;;5070672;28;20113;-62
2021/08/20 05:21:25;;;;;;;17.60;5.43;;;31.70;48.80;;;;;;5072958;28;20476;-63
2021/08/20 05:23:51;;;;;;;16.70;5.60;;;31.80;48.20;;;;;;5075581;28;20084;-63
2021/08/20 05:26:18;;;;;;;17.60;5.50;;;31.90;48.10;;;;;;5078817;28;20081;-62
2021/08/20 05:28:44;;;;;;;19.30;5.40;;;32.00;48.10;;;;;;5075861;28;20069;-61
2021/08/20 05:31:11;;;;;;;12.80;5.03;;;32.00;48.80;;;;;;5074425;28;20542;-61
2021/08/20 05:33:40;;;;;;;26.05;5.32;;;31.90;49.50;;;;;;5071116;28;20088;-62
2021/08/20 05:36:07;;;;;;;14.82;5.07;;;32.00;50.00;;;;;;5076854;28;20167;-61
2021/08/20 05:38:34;;;;;;;16.95;5.20;;;32.00;50.80;;;;;;5074992;28;20077;-61
2021/08/20 05:41:01;;;;;;;15.73;5.03;;;32.00;52.00;;;;;;5072730;28;20073;-62
2021/08/20 05:43:31;;;;;;;17.55;4.82;;;32.00;54.70;;;;;;5074920;28;20513;-61
2021/08/20 05:45:58;;;;;;;15.32;4.65;;;32.10;83.60;;;;;;5076763;28;20092;-63
2021/08/20 05:48:25;;;;;;;12.20;4.57;;;32.00;59.00;;;;;;5074774;28;20438;-62
2021/08/20 05:50:52;;;;;;;12.63;4.82;;;31.90;59.40;;;;;;5074336;28;20078;-62
2021/08/20 05:53:18;;;;;;;14.35;3.72;;;31.80;59.90;;;;;;5077090;28;20469;-61
2021/08/20 05:55:45;;;;;;;8.70;4.25;;;31.70;59.90;;;;;;5079415;28;20075;-62
2021/08/20 05:58:11;;;;;;;14.98;4.25;;;31.70;59.80;;;;;;5078153;28;20073;-62
2021/08/20 06:00:38;;;;;;;16.00;4.47;;;31.70;59.80;;;;;;5082715;28;20123;-63
2021/08/20 06:03:04;;;;;;;21.35;4.72;;;31.70;59.80;;;;;;5078221;28;20077;-62
2021/08/20 06:05:31;;;;;;;17.55;4.38;;;31.70;58.50;;;;;;5077558;28;20076;-61
2021/08/20 06:07:58;;;;;;;16.98;5.05;;;31.60;56.60;;;;;;5074555;28;20095;-62
2021/08/20 06:10:24;;;;;;;16.80;5.25;;;31.60;53.70;;;;;;5079867;28;20073;-62
2021/08/20 06:12:51;;;;;;;13.80;4.38;;;31.50;49.80;;;;;;5077276;28;20097;-61
2021/08/20 06:15:17;;;;;;;11.82;4.95;;;31.50;49.20;;;;;;5074851;28;20155;-61
2021/08/20 06:17:45;;;;;;;17.48;5.07;;;31.50;47.50;;;;;;5080302;28;20077;-62
2021/08/20 06:20:13;;;;;;;20.42;5.05;;;31.30;66.90;;;;;;5075661;28;20489;-62
2021/08/20 06:22:39;;;;;;;13.95;4.65;;;31.40;47.10;;;;;;5078479;28;20077;-62
2021/08/20 06:25:06;;;;;;;22.83;5.55;;;31.40;47.40;;;;;;5078698;28;20081;-62
2021/08/20 06:27:33;;;;;;;13.73;5.45;;;31.50;47.00;;;;;;5077613;28;20072;-61
2021/08/20 06:30:00;;;;;;;11.65;5.18;;;31.50;47.00;;;;;;5077286;28;20084;-61
2021/08/20 06:32:26;;;;;;;16.92;5.22;;;31.50;46.90;;;;;;5079781;28;20436;-63
2021/08/20 06:34:53;;;;;;;24.48;5.15;;;31.50;46.90;;;;;;5076060;28;20081;-63
2021/08/20 06:37:19;;;;;;;15.48;5.20;;;31.50;46.80;;;;;;5075016;28;20475;-62
2021/08/20 06:39:46;;;;;;;14.93;5.85;;;31.50;46.80;;;;;;5077456;28;20141;-62
2021/08/20 06:42:12;;;;;;;12.18;5.45;;;31.40;47.00;;;;;;5076051;28;20073;-62
2021/08/20 06:44:39;;;;;;;18.70;5.28;;;31.40;47.00;;;;;;5076592;28;20115;-62
2021/08/20 06:47:07;;;;;;;12.98;4.60;;;31.30;47.00;;;;;;5078920;28;20521;-62
2021/08/20 06:49:33;;;;;;;10.50;4.80;;;31.30;47.50;;;;;;5079553;28;20484;-62
2021/08/20 06:52:00;;;;;;;16.67;4.75;;;31.30;47.60;;;;;;5078712;28;20084;-62
2021/08/20 06:54:26;;;;;;;16.58;4.55;;;31.30;47.70;;;;;;5071159;28;20072;-63
2021/08/20 06:56:53;;;;;;;12.88;5.10;;;31.20;47.70;;;;;;5075443;28;20475;-63
2021/08/20 06:59:19;;;;;;;14.93;5.25;;;31.20;47.90;;;;;;5076560;28;20606;-62
2021/08/20 07:01:46;;;;;;;18.23;5.10;;;31.20;48.90;;;;;;5074816;28;20104;-62
2021/08/20 07:04:12;;;;;;;19.35;5.38;;;31.20;52.60;;;;;;5078132;28;20084;-62
2021/08/20 07:06:39;;;;;;;22.85;5.57;;;31.20;55.70;;;;;;5077805;28;20084;-61
2021/08/20 07:09:05;;;;;;;22.90;5.90;;;31.10;59.70;;;;;;5077975;28;20577;-62
2021/08/20 07:11:32;;;;;;;22.02;6.15;;;31.10;65.50;;;;;;5078556;28;20489;-61
2021/08/20 07:14:00;;;;;;;22.30;5.55;;;31.00;68.20;;;;;;5079086;28;20073;-64
2021/08/20 07:16:27;;;;;;;26.48;5.50;;;30.90;70.10;;;;;;5074729;28;20539;-63
2021/08/20 07:18:54;;;;;;;21.13;5.25;;;30.90;71.20;;;;;;5073775;28;20109;-63
2021/08/20 07:21:21;;;;;;;17.38;6.05;;;30.90;72.10;;;;;;5079687;28;20088;-62
2021/08/20 07:23:47;;;;;;;13.35;4.90;;;30.80;72.90;;;;;;5073306;28;20543;-62
2021/08/20 07:26:15;;;;;;;18.15;5.75;;;30.80;74.00;;;;;;5075377;28;20100;-62
2021/08/20 07:28:42;;;;;;;20.77;5.53;;;30.70;74.80;;;;;;5078648;28;20077;-62
2021/08/20 07:31:08;;;;;;;16.58;5.53;;;30.70;75.60;;;;;;5078382;28;20073;-62
2021/08/20 07:33:35;;;;;;;19.23;5.22;;;30.70;75.90;;;;;;5076913;28;20079;-63
2021/08/20 07:36:01;;;;;;;23.20;5.78;;;30.60;77.20;;;;;;5075917;28;20414;-62
2021/08/20 07:38:28;;;;;;;22.45;5.90;;;30.60;78.10;;;;;;5077288;28;20111;-63
2021/08/20 07:40:55;;;;;;;18.00;5.03;;;30.60;78.50;;;;;;5074545;28;20568;-62
2021/08/20 07:43:22;;;;;;;19.55;4.75;;;30.60;79.10;;;;;;5080030;28;20072;-62
2021/08/20 07:45:49;;;;;;;16.95;4.93;;;30.50;79.30;;;;;;5074317;28;20073;-61
2021/08/20 07:48:16;;;;;;;18.13;5.43;;;30.50;79.80;;;;;;5071034;28;20077;-62
2021/08/20 07:50:47;;;;;;;16.50;5.03;;;30.50;80.10;;;;;;5072381;28;20163;-61
2021/08/20 07:53:16;;;;;;;26.80;5.60;;;30.40;80.90;;;;;;5071928;28;20526;-61
2021/08/20 07:55:45;;;;;;;22.60;5.05;;;30.30;81.70;;;;;;5081150;28;20207;-62
2021/08/20 07:58:12;;;;;;;16.92;4.53;;;30.30;82.40;;;;;;5076883;28;20072;-61
2021/08/20 08:00:38;;;;;;;20.13;5.28;;;30.30;82.70;;;;;;5077996;28;20685;-61
2021/08/20 08:03:05;;;;;;;22.33;5.95;;;30.20;82.90;;;;;;5074785;28;20160;-61
2021/08/20 08:05:31;;;;;;;17.40;5.65;;;30.10;83.80;;;;;;5079176;28;20088;-61
2021/08/20 08:07:58;;;;;;;19.40;5.57;;;30.10;84.30;;;;;;5081068;28;20098;-61
2021/08/20 08:10:25;;;;;;;16.02;4.80;;;30.20;84.20;;;;;;5076075;28;20433;-62
2021/08/20 08:12:53;;;;;;;25.38;5.60;;;30.20;84.70;;;;;;5074974;28;20190;-62
2021/08/20 08:15:22;;;;;;;17.50;4.97;;;30.10;84.80;;;;;;5077895;28;20103;-62
2021/08/20 08:17:48;;;;;;;22.05;5.78;;;30.00;85.40;;;;;;5077345;28;20073;-62
2021/08/20 08:20:16;;;;;;;18.65;5.00;;;30.00;85.70;;;;;;5078647;28;20151;-62
2021/08/20 08:22:44;;;;;;;20.08;5.78;;;30.00;86.30;;;;;;5080423;28;20065;-62
2021/08/20 08:25:11;;;;;;;22.13;5.38;;;30.00;86.00;;;;;;5073398;28;20076;-62
2021/08/20 08:28:07;;;;;;;18.92;5.53;;;30.10;86.00;;;;;;5073691;28;20078;-62
2021/08/20 08:30:39;;;;;;;19.35;5.13;;;30.00;86.10;;;;;;5066533;28;20088;-61
2021/08/20 08:33:08;;;;;;;22.80;5.88;;;30.00;86.40;;;;;;5075822;28;20081;-63
2021/08/20 08:35:35;;;;;;;16.83;5.07;;;30.00;86.40;;;;;;5072535;28;20080;-63
2021/08/20 08:38:13;;;;;;;20.55;5.32;;;30.00;87.10;;;;;;5076163;28;20514;-62
2021/08/20 08:40:44;;;;;;;20.90;5.25;;;29.90;87.30;;;;;;5075023;28;20116;-62
2021/08/20 08:43:12;;;;;;;18.88;5.20;;;29.90;87.30;;;;;;5072951;28;20094;-62
2021/08/20 08:45:39;;;;;;;23.83;5.68;;;29.90;88.50;;;;;;5089133;28;20529;-64
2021/08/20 08:48:10;;;;;;;24.25;5.68;;;29.80;87.80;;;;;;5075840;28;20159;-62
2021/08/20 08:50:37;;;;;;;18.30;4.68;;;29.80;87.90;;;;;;5070727;28;20920;-63
2021/08/20 08:53:05;;;;;;;23.55;6.45;;;29.70;88.50;;;;;;5071288;28;20073;-62
2021/08/20 08:55:31;;;;;;;15.68;5.07;;;29.80;88.20;;;;;;5070678;28;20107;-62
2021/08/20 08:57:58;;;;;;;24.13;5.90;;;29.70;88.40;;;;;;5073508;28;20078;-63
2021/08/20 09:00:36;;;;;;;21.27;6.00;;;29.70;88.40;;;;;;5074322;28;20569;-62
2021/08/20 09:03:04;;;;;;;18.92;5.75;;;29.70;88.10;;;;;;5074691;28;20503;-62
2021/08/20 09:05:44;;;;;;;21.60;6.05;;;29.60;88.40;;;;;;5074998;28;20167;-62
2021/08/20 09:08:17;;;;;;;21.00;5.80;;;29.70;88.40;;;;;;5076000;28;20119;-62
2021/08/20 09:10:55;;;;;;;14.18;5.05;;;29.60;87.70;;;;;;5068984;28;20131;-61
2021/08/20 09:13:23;;;;;;;17.05;5.40;;;29.60;88.10;;;;;;5071598;28;20080;-62
2021/08/20 09:16:09;;;;;;;17.67;5.70;;;29.70;87.90;;;;;;5072890;28;20073;-62
2021/08/20 09:18:36;;;;;;;14.60;4.85;;;29.70;87.70;;;;;;5076091;28;20073;-62
2021/08/20 09:21:04;;;;;;;19.58;5.50;;;29.70;87.70;;;;;;5074000;28;20188;-62
2021/08/20 09:23:31;;;;;;;18.02;4.80;;;29.70;87.70;;;;;;5075693;28;20080;-62
2021/08/20 09:25:58;;;;;;;20.27;5.82;;;29.70;87.30;;;;;;5074896;28;20083;-62
2021/08/20 09:28:26;;;;;;;13.98;4.93;;;29.70;87.30;;;;;;5070700;28;20073;-62
2021/08/20 09:30:57;;;;;;;17.80;5.07;;;29.60;86.50;;;;;;5071906;28;20075;-60
2021/08/20 09:33:32;;;;;;;18.83;4.82;;;29.50;85.70;;;;;;5071858;28;20095;-62
2021/08/20 09:36:08;;;;;;;23.75;4.72;;;29.40;85.40;;;;;;5079398;28;20151;-62
2021/08/20 09:38:46;;;;;;;15.88;4.88;;;29.30;85.30;;;;;;5072147;28;20094;-62
2021/08/20 09:41:19;;;;;;;11.98;4.70;;;29.40;85.40;;;;;;5080663;28;20526;-61
2021/08/20 09:43:48;;;;;;;16.60;5.18;;;29.40;85.10;;;;;;5075251;28;20499;-63
2021/08/20 09:46:17;;;;;;;17.85;5.07;;;29.40;84.40;;;;;;5074120;28;20447;-61
2021/08/20 09:48:51;;;;;;;24.27;5.30;;;29.40;84.70;;;;;;5071754;28;20081;-62
2021/08/20 09:51:45;;;;;;;14.95;4.57;;;29.40;83.90;;;;;;5072449;28;20080;-62
2021/08/20 09:54:26;;;;;;;10.00;4.18;;;29.40;84.00;;;;;;5070055;28;20112;-63
2021/08/20 09:56:53;;;;;;;13.50;4.65;;;29.40;83.50;;;;;;5069740;28;20069;-62
2021/08/20 09:59:20;;;;;;;14.27;4.72;;;29.40;83.20;;;;;;5071739;28;20132;-62
2021/08/20 10:01:48;;;;;;;10.82;4.20;;;29.40;83.30;;;;;;5077264;28;20577;-61
2021/08/20 10:04:17;;;;;;;13.25;4.80;;;29.40;83.60;;;;;;5075862;28;20085;-60
2021/08/20 10:06:48;;;;;;;13.00;4.70;;;29.30;83.60;;;;;;5073411;28;20502;-62
2021/08/20 10:09:17;;;;;;;12.65;4.45;;;29.30;83.40;;;;;;5073181;28;20095;-62
2021/08/20 10:11:52;;;;;;;12.85;4.43;;;29.10;83.70;;;;;;5079325;28;20520;-62
2021/08/20 10:14:22;;;;;;;19.58;4.95;;;29.10;83.60;;;;;;5078937;28;20069;-63
2021/08/20 10:16:49;;;;;;;12.82;4.85;;;29.20;83.80;;;;;;5077462;28;20081;-62
2021/08/20 10:19:16;;;;;;;15.77;5.35;;;29.30;83.50;;;;;;5072883;28;20117;-61
2021/08/20 10:21:43;;;;;;;12.00;4.43;;;29.20;84.10;;;;;;5075196;28;20513;-61
2021/08/20 10:24:12;;;;;;;15.10;5.00;;;29.20;83.10;;;;;;5071928;28;20515;-61
2021/08/20 10:26:51;;;;;;;16.77;4.80;;;29.10;83.30;;;;;;5076541;28;20448;-61
2021/08/20 10:29:25;;;;;;;14.30;4.55;;;29.20;82.80;;;;;;5075278;28;20187;-61
2021/08/20 10:31:52;;;;;;;18.77;4.75;;;29.00;82.90;;;;;;5080168;28;20082;-62
2021/08/20 10:34:48;;;;;;;12.05;4.70;;;29.00;82.80;;;;;;5079640;28;20072;-62
2021/08/20 10:37:31;;;;;;;17.55;5.10;;;29.00;82.60;;;;;;5060399;28;20093;-62
2021/08/20 10:40:21;;;;;;;20.90;4.97;;;29.00;82.40;;;;;;5077007;28;20093;-62
2021/08/20 10:42:49;;;;;;;16.63;5.07;;;28.90;82.10;;;;;;5076484;28;20112;-62
2021/08/20 10:45:16;;;;;;;17.67;5.57;;;28.90;82.60;;;;;;5076799;28;20096;-62
2021/08/20 10:47:45;;;;;;;20.10;5.68;;;28.90;82.70;;;;;;5077320;28;20184;-62
2021/08/20 10:50:21;;;;;;;13.77;5.05;;;28.80;83.10;;;;;;5074350;28;20085;-63
2021/08/20 10:52:48;;;;;;;;;;;28.80;83.10;;;;;;5079046;28;20117;-62
2021/08/20 10:55:23;;;;;;;15.77;5.22;;;28.80;83.20;;;;;;5075066;28;20225;-63
2021/08/20 10:57:58;;;;;;;16.52;5.32;;;28.90;83.20;;;;;;5076493;28;20091;-62
2021/08/20 11:00:27;;;;;;;15.93;4.88;;;28.80;82.20;;;;;;5074596;28;20096;-63
2021/08/20 11:02:55;;;;;;;16.30;5.28;;;28.70;82.70;;;;;;5074707;28;20065;-61
2021/08/20 11:05:42;;;;;;;14.02;4.82;;;28.60;82.70;;;;;;5076193;28;21071;-61
2021/08/20 11:08:41;;;;;;;21.35;5.68;;;28.60;82.90;;;;;;5073265;28;20069;-60
2021/08/20 11:11:41;;;;;;;17.52;5.07;;;28.60;82.80;;;;;;5039398;28;20073;-62
2021/08/20 11:14:23;;;;;;;13.20;4.53;;;28.60;83.20;;;;;;5079529;28;20104;-61
2021/08/20 11:16:50;;;;;;;18.10;5.45;;;28.60;83.40;;;;;;5076608;28;20126;-61
2021/08/20 11:19:45;;;;;;;16.23;5.50;;;28.60;83.10;;;;;;5077204;28;20564;-61
2021/08/20 11:22:22;;;;;;;12.15;5.50;;;28.60;83.30;;;;;;5076090;28;20068;-60
2021/08/20 11:25:09;;;;;;;15.07;5.45;;;28.50;83.40;;;;;;5071468;28;20125;-62
2021/08/20 11:27:37;;;;;;;12.73;4.80;;;28.50;83.60;;;;;;5081326;28;20088;-61
2021/08/20 11:30:04;;;;;;;18.77;5.93;;;28.50;84.40;;;;;;5076191;28;20146;-62
2021/08/20 11:32:31;;;;;;;16.05;4.88;;;28.50;84.30;;;;;;5079316;28;20112;-62
2021/08/20 11:34:57;;;;;;;12.07;4.40;;;28.50;84.50;;;;;;5077704;28;20183;-62
2021/08/20 11:37:24;;;;;;;13.55;4.78;;;28.40;84.60;;;;;;5076453;28;20421;-62
2021/08/20 11:40:02;;;;;;;17.65;4.93;;;28.40;84.60;;;;;;5076264;28;20069;-62
2021/08/20 11:42:29;;;;;;;12.00;5.13;;;28.40;85.20;;;;;;5079939;28;20122;-61
2021/08/20 11:44:55;;;;;;;12.48;4.70;;;28.30;85.40;;;;;;5079902;28;20069;-61
2021/08/20 11:47:22;;;;;;;15.95;5.22;;;28.30;85.60;;;;;;5076450;28;21551;-61
2021/08/20 11:49:48;;;;;;;11.75;5.05;;;28.30;85.90;;;;;;5074733;28;20093;-61
2021/08/20 11:52:15;;;;;;;13.32;5.13;;;28.30;86.20;;;;;;5074951;28;20345;-60
2021/08/20 11:54:41;;;;;;;17.05;5.95;;;28.30;85.60;;;;;;5078675;28;20073;-61
2021/08/20 11:57:08;;;;;;;10.10;4.30;;;28.20;85.70;;;;;;5073537;28;20083;-62
2021/08/20 11:59:35;;;;;;;19.67;5.38;;;28.30;86.00;;;;;;5080749;28;20088;-61
2021/08/20 12:02:01;;;;;;;19.35;5.43;;;28.30;85.80;;;;;;5078569;28;20073;-62
2021/08/20 12:04:29;;;;;;;13.55;4.95;;;28.30;86.20;;;;;;5078336;28;20126;-61
2021/08/20 12:06:56;;;;;;;14.23;5.25;;;28.30;85.90;;;;;;5077602;28;20101;-62
2021/08/20 12:09:23;;;;;;;18.15;5.30;;;28.20;86.40;;;;;;5072911;28;20120;-62
2021/08/20 12:11:53;;;;;;;14.55;4.95;;;28.20;86.20;;;;;;5080654;28;20513;-61
2021/08/20 12:14:25;;;;;;;14.85;5.07;;;28.30;85.90;;;;;;5075444;28;20452;-62
2021/08/20 12:16:53;;;;;;;13.55;4.82;;;28.20;86.30;;;;;;5075845;28;20126;-61
2021/08/20 12:19:21;;;;;;;15.75;5.03;;;28.20;86.20;;;;;;5075430;28;20593;-62
2021/08/20 12:21:51;;;;;;;12.95;5.05;;;28.20;85.90;;;;;;5076835;28;20160;-60
2021/08/20 12:24:36;;;;;;;13.75;4.80;;;28.20;85.40;;;;;;5077520;28;20072;-61
2021/08/20 12:27:14;;;;;;;15.25;5.22;;;28.20;86.40;;;;;;5072878;28;20441;-62
2021/08/20 12:29:41;;;;;;;12.32;4.88;;;28.20;86.00;;;;;;5073607;28;20128;-61
2021/08/20 12:32:08;;;;;;;18.40;5.50;;;28.10;86.40;;;;;;5076046;28;20157;-61
2021/08/20 12:34:36;;;;;;;12.38;4.93;;;28.00;86.90;;;;;;5077076;28;20084;-62
2021/08/20 12:37:05;;;;;;;16.00;5.57;;;28.10;86.90;;;;;;5076690;28;20578;-62
2021/08/20 12:39:46;;;;;;;13.00;5.45;;;28.10;86.50;;;;;;5076450;28;20124;-62
2021/08/20 12:42:26;;;;;;;12.00;4.82;;;28.00;86.20;;;;;;5075459;28;20073;-62
2021/08/20 12:45:25;;;;;;;14.57;5.07;;;28.00;87.30;;;;;;5073776;28;20065;-62
2021/08/20 12:48:05;;;;;;;17.15;4.90;;;28.00;87.20;;;;;;5056577;28;20087;-62